createdAt,value
2023-05-15T00:00:23.037Z,12.40
2023-05-15T00:02:50.617Z,12.34
2023-05-15T00:05:18.181Z,12.22
2023-05-15T00:07:45.663Z,12.28
2023-05-15T00:10:13.502Z,12.19
2023-05-15T00:12:40.937Z,12.16
2023-05-15T00:15:08.945Z,12.16
2023-05-15T00:17:36.434Z,12.22
2023-05-15T00:20:05.242Z,12.37
2023-05-15T00:22:32.632Z,12.25
2023-05-15T00:25:00.048Z,12.23
2023-05-15T00:27:28.071Z,12.22
2023-05-15T00:29:56.204Z,12.21
2023-05-15T00:32:23.743Z,12.32
2023-05-15T00:34:52.520Z,12.35
2023-05-15T00:37:19.968Z,12.31
2023-05-15T00:39:47.367Z,12.18
2023-05-15T00:42:17.395Z,12.22
2023-05-15T00:44:45.860Z,12.18
2023-05-15T00:47:14.418Z,12.18
2023-05-15T00:49:42.806Z,12.11
2023-05-15T00:52:11.870Z,12.13
2023-05-15T00:54:39.335Z,12.14
2023-05-15T00:57:09.156Z,12.20
2023-05-15T00:59:39.348Z,12.21
2023-05-15T01:02:06.830Z,12.17
2023-05-15T01:04:34.441Z,12.29
2023-05-15T01:07:01.808Z,12.21
2023-05-15T01:09:31.364Z,12.35
2023-05-15T01:12:00.783Z,12.37
2023-05-15T01:14:28.310Z,12.28
2023-05-15T01:16:55.811Z,12.26
2023-05-15T01:19:23.380Z,12.14
2023-05-15T01:22:05.836Z,12.11
2023-05-15T01:24:59.549Z,12.00
2023-05-15T01:27:46.535Z,11.97
2023-05-15T01:30:27.047Z,12.02
2023-05-15T01:33:05.513Z,11.90
2023-05-15T01:35:45.314Z,11.95
2023-05-15T01:38:23.821Z,11.96
2023-05-15T01:41:06.391Z,12.02
2023-05-15T01:43:37.429Z,12.03
2023-05-15T01:46:07.191Z,11.95
2023-05-15T01:48:36.543Z,12.14
2023-05-15T01:51:07.837Z,11.95
2023-05-15T01:53:37.616Z,11.94
2023-05-15T01:56:09.443Z,11.96
2023-05-15T01:58:39.919Z,11.91
2023-05-15T02:01:13.575Z,11.96
2023-05-15T02:03:42.392Z,11.94
2023-05-15T02:06:10.415Z,11.89
2023-05-15T02:08:39.601Z,11.86
2023-05-15T02:11:07.598Z,11.98
2023-05-15T02:13:36.292Z,11.92
2023-05-15T02:16:03.905Z,11.90
2023-05-15T02:18:31.475Z,11.83
2023-05-15T02:21:04.004Z,11.75
2023-05-15T02:23:31.450Z,11.78
2023-05-15T02:26:17.447Z,11.83
2023-05-15T02:29:11.938Z,11.78
2023-05-15T02:31:52.171Z,11.76
2023-05-15T02:34:55.627Z,11.73
2023-05-15T02:37:28.554Z,11.61
2023-05-15T02:39:59.756Z,11.48
2023-05-15T02:42:29.567Z,11.50
2023-05-15T02:44:58.095Z,11.49
2023-05-15T02:47:27.731Z,11.45
2023-05-15T02:49:55.881Z,11.31
2023-05-15T02:52:24.847Z,11.35
2023-05-15T02:54:53.383Z,11.45
2023-05-15T02:57:21.007Z,11.45
2023-05-15T02:59:48.744Z,11.66
2023-05-15T03:02:16.211Z,11.55
2023-05-15T03:04:44.976Z,11.53
2023-05-15T03:07:14.447Z,11.59
2023-05-15T03:09:41.982Z,11.43
2023-05-15T03:12:10.570Z,11.46
2023-05-15T03:14:37.989Z,11.53
2023-05-15T03:17:05.673Z,11.49
2023-05-15T03:19:33.150Z,11.67
2023-05-15T03:22:00.763Z,11.74
2023-05-15T03:24:28.147Z,11.60
2023-05-15T03:26:55.590Z,11.67
2023-05-15T03:29:22.926Z,11.72
2023-05-15T03:31:50.421Z,11.80
2023-05-15T03:34:17.816Z,11.76
2023-05-15T03:36:45.156Z,11.70
2023-05-15T03:39:12.535Z,11.83
2023-05-15T03:41:39.927Z,11.76
2023-05-15T03:44:07.360Z,11.76
2023-05-15T03:46:34.788Z,11.71
2023-05-15T03:49:03.218Z,11.68
2023-05-15T03:51:30.716Z,11.68
2023-05-15T03:53:58.180Z,11.68
2023-05-15T03:56:25.677Z,11.64
2023-05-15T03:58:53.326Z,11.69
2023-05-15T04:01:20.738Z,11.70
2023-05-15T04:03:48.161Z,11.66
2023-05-15T04:06:15.479Z,11.74
2023-05-15T04:08:42.898Z,11.83
2023-05-15T04:11:11.525Z,11.82
2023-05-15T04:14:12.826Z,11.73
2023-05-15T04:16:40.228Z,11.81
2023-05-15T04:19:07.830Z,11.86
2023-05-15T04:21:35.171Z,11.76
2023-05-15T04:24:02.538Z,11.73
2023-05-15T04:26:29.931Z,11.67
2023-05-15T04:29:03.902Z,11.67
2023-05-15T04:31:32.160Z,11.61
2023-05-15T04:33:59.606Z,11.65
2023-05-15T04:36:27.158Z,11.66
2023-05-15T04:38:54.441Z,11.58
2023-05-15T04:41:22.291Z,11.64
2023-05-15T04:43:49.647Z,11.61
2023-05-15T04:46:17.054Z,11.70
2023-05-15T04:48:44.427Z,11.81
2023-05-15T04:51:12.233Z,11.84
2023-05-15T04:53:39.571Z,11.74
2023-05-15T04:56:07.057Z,11.64
2023-05-15T04:58:34.381Z,11.75
2023-05-15T05:01:03.882Z,11.76
2023-05-15T05:03:31.778Z,11.80
2023-05-15T05:05:59.613Z,11.74
2023-05-15T05:08:27.006Z,11.59
2023-05-15T05:10:57.853Z,11.53
2023-05-15T05:13:25.232Z,11.50
2023-05-15T05:15:52.683Z,11.52
2023-05-15T05:18:20.134Z,11.54
2023-05-15T05:20:47.671Z,11.51
2023-05-15T05:23:15.167Z,11.46
2023-05-15T05:25:42.911Z,11.49
2023-05-15T05:28:10.334Z,11.56
2023-05-15T05:30:37.694Z,11.56
2023-05-15T05:33:05.090Z,11.61
2023-05-15T05:35:32.466Z,11.52
2023-05-15T05:37:59.854Z,11.64
2023-05-15T05:40:27.223Z,12.04
2023-05-15T05:42:54.911Z,12.28
2023-05-15T05:45:22.365Z,12.29
2023-05-15T05:47:49.796Z,12.32
2023-05-15T05:50:17.264Z,12.36
2023-05-15T05:52:44.667Z,12.38
2023-05-15T05:55:12.068Z,12.30
2023-05-15T05:57:39.461Z,12.31
2023-05-15T06:00:10.983Z,12.45
2023-05-15T06:02:39.689Z,12.52
2023-05-15T06:05:08.611Z,12.59
2023-05-15T06:07:36.154Z,12.68
2023-05-15T06:10:04.023Z,12.74
2023-05-15T06:12:31.542Z,12.83
2023-05-15T06:14:58.890Z,12.80
2023-05-15T06:17:26.292Z,12.73
2023-05-15T06:19:54.408Z,12.71
2023-05-15T06:22:21.986Z,12.71
2023-05-15T06:24:49.375Z,12.80
2023-05-15T06:27:16.764Z,12.88
2023-05-15T06:29:44.201Z,12.92
2023-05-15T06:32:11.523Z,12.92
2023-05-15T06:34:38.937Z,12.98
2023-05-15T06:37:06.373Z,12.97
2023-05-15T06:39:33.745Z,13.02
2023-05-15T06:42:01.711Z,13.10
2023-05-15T06:44:31.328Z,13.28
2023-05-15T06:46:59.165Z,13.30
2023-05-15T06:49:27.264Z,13.30
2023-05-15T06:51:57.297Z,13.36
2023-05-15T06:54:24.699Z,13.40
2023-05-15T06:56:52.090Z,13.60
2023-05-15T06:59:19.517Z,13.69
2023-05-15T07:01:46.996Z,13.70
2023-05-15T07:04:14.417Z,13.79
2023-05-15T07:06:41.868Z,13.79
2023-05-15T07:09:09.621Z,13.86
2023-05-15T07:11:38.891Z,14.04
2023-05-15T07:14:14.363Z,14.15
2023-05-15T07:16:41.730Z,14.22
2023-05-15T07:19:09.609Z,14.16
2023-05-15T07:21:37.326Z,14.27
2023-05-15T07:24:05.184Z,14.25
2023-05-15T07:26:38.653Z,14.39
2023-05-15T07:29:14.255Z,14.47
2023-05-15T07:31:44.662Z,14.35
2023-05-15T07:34:12.125Z,14.43
2023-05-15T07:36:39.688Z,14.41
2023-05-15T07:39:07.051Z,14.46
2023-05-15T07:41:34.452Z,14.48
2023-05-15T07:44:01.879Z,14.62
2023-05-15T07:46:29.233Z,14.59
2023-05-15T07:48:56.516Z,14.62
2023-05-15T07:51:23.870Z,14.76
2023-05-15T07:53:51.344Z,14.87
2023-05-15T07:56:18.785Z,14.83
2023-05-15T07:58:46.154Z,14.73
2023-05-15T08:01:13.402Z,14.64
2023-05-15T08:03:40.752Z,14.84
2023-05-15T08:06:08.474Z,14.88
2023-05-15T08:08:35.837Z,14.89
2023-05-15T08:11:03.161Z,15.07
2023-05-15T08:13:30.577Z,15.16
2023-05-15T08:15:58.384Z,15.20
2023-05-15T08:18:25.768Z,15.21
2023-05-15T08:20:53.157Z,15.28
2023-05-15T08:23:20.563Z,15.45
2023-05-15T08:25:47.985Z,15.65
2023-05-15T08:28:15.583Z,15.94
2023-05-15T08:30:42.978Z,16.12
2023-05-15T08:33:10.488Z,16.04
2023-05-15T08:35:37.861Z,16.18
2023-05-15T08:38:05.405Z,16.21
2023-05-15T08:40:39.227Z,16.36
2023-05-15T08:43:15.230Z,16.46
2023-05-15T08:45:43.906Z,16.61
2023-05-15T08:48:16.258Z,16.62
2023-05-15T08:50:44.428Z,16.90
2023-05-15T08:53:15.006Z,16.74
2023-05-15T08:55:42.620Z,16.74
2023-05-15T08:58:10.355Z,16.94
2023-05-15T09:00:38.756Z,16.95
2023-05-15T09:03:06.817Z,16.93
2023-05-15T09:05:34.674Z,16.77
2023-05-15T09:08:05.329Z,17.17
2023-05-15T09:10:33.764Z,17.21
2023-05-15T09:13:02.396Z,17.40
2023-05-15T09:15:30.634Z,17.44
2023-05-15T09:17:58.298Z,17.38
2023-05-15T09:20:37.620Z,17.46
2023-05-15T09:23:21.579Z,17.52
2023-05-15T09:25:53.298Z,17.44
2023-05-15T09:28:28.013Z,17.64
2023-05-15T09:31:00.242Z,17.71
2023-05-15T09:33:32.718Z,17.88
2023-05-15T09:36:00.802Z,17.99
2023-05-15T09:38:28.684Z,17.80
2023-05-15T09:41:06.414Z,17.88
2023-05-15T09:43:38.390Z,18.11
2023-05-15T09:46:06.578Z,18.11
2023-05-15T09:48:35.231Z,18.05
2023-05-15T09:51:02.750Z,17.67
2023-05-15T09:53:31.806Z,17.61
2023-05-15T09:55:59.314Z,17.77
2023-05-15T09:58:26.923Z,17.78
2023-05-15T10:00:54.324Z,17.82
2023-05-15T10:03:23.500Z,17.96
2023-05-15T10:05:58.990Z,17.90
2023-05-15T10:08:28.488Z,17.78
2023-05-15T10:11:00.183Z,17.77
2023-05-15T10:13:31.565Z,17.67
2023-05-15T10:15:59.592Z,17.55
2023-05-15T10:18:30.541Z,17.43
2023-05-15T10:21:01.308Z,17.34
2023-05-15T10:23:31.122Z,17.61
2023-05-15T10:26:07.008Z,17.74
2023-05-15T10:28:36.241Z,17.75
2023-05-15T10:31:05.069Z,17.73
2023-05-15T10:33:35.944Z,17.59
2023-05-15T10:36:03.804Z,17.95
2023-05-15T10:38:31.779Z,17.87
2023-05-15T10:41:15.824Z,17.98
2023-05-15T10:43:45.852Z,18.09
2023-05-15T10:46:14.938Z,18.16
2023-05-15T10:48:42.662Z,18.06
2023-05-15T10:51:27.873Z,17.80
2023-05-15T10:53:56.864Z,17.84
2023-05-15T10:56:30.124Z,17.79
2023-05-15T10:58:57.728Z,17.85
2023-05-15T11:01:33.159Z,17.89
2023-05-15T11:04:22.901Z,17.82
2023-05-15T11:07:10.636Z,17.84
2023-05-15T11:09:38.836Z,18.03
2023-05-15T11:12:11.847Z,18.23
2023-05-15T11:14:42.191Z,18.28
2023-05-15T11:17:16.489Z,18.40
2023-05-15T11:19:49.648Z,18.47
2023-05-15T11:22:29.471Z,18.44
2023-05-15T11:25:02.756Z,18.64
2023-05-15T11:27:37.293Z,18.66
2023-05-15T11:30:08.653Z,18.62
2023-05-15T11:32:45.180Z,18.56
2023-05-15T11:35:28.018Z,18.63
2023-05-15T11:38:01.955Z,18.73
2023-05-15T11:40:31.651Z,18.71
2023-05-15T11:42:58.875Z,18.61
2023-05-15T11:45:28.152Z,18.63
2023-05-15T11:47:55.550Z,18.61
2023-05-15T11:50:23.645Z,18.60
2023-05-15T11:52:51.497Z,18.64
2023-05-15T11:55:19.669Z,18.63
2023-05-15T11:57:47.515Z,18.54
2023-05-15T12:00:15.740Z,18.71
2023-05-15T12:02:43.267Z,18.76
2023-05-15T12:05:10.957Z,18.70
2023-05-15T12:07:40.983Z,19.06
2023-05-15T12:10:11.208Z,19.00
2023-05-15T12:12:46.280Z,19.11
2023-05-15T12:15:18.659Z,19.27
2023-05-15T12:17:46.429Z,19.22
2023-05-15T12:20:18.131Z,18.81
2023-05-15T12:22:45.839Z,18.90
2023-05-15T12:25:15.823Z,18.79
2023-05-15T12:27:43.795Z,19.01
2023-05-15T12:30:13.693Z,18.91
2023-05-15T12:32:41.412Z,19.08
2023-05-15T12:35:10.493Z,18.94
2023-05-15T12:37:38.746Z,19.02
2023-05-15T12:40:13.104Z,19.15
2023-05-15T12:42:40.528Z,18.95
2023-05-15T12:45:19.641Z,19.12
2023-05-15T12:47:49.916Z,19.24
2023-05-15T12:50:21.277Z,19.09
2023-05-15T12:53:00.568Z,19.38
2023-05-15T12:55:34.002Z,19.31
2023-05-15T12:58:06.543Z,19.33
2023-05-15T13:00:38.661Z,19.43
2023-05-15T13:03:09.820Z,19.83
2023-05-15T13:05:38.296Z,19.62
2023-05-15T13:08:09.242Z,19.60
2023-05-15T13:10:37.931Z,19.51
2023-05-15T13:13:05.392Z,19.49
2023-05-15T13:15:35.475Z,19.62
2023-05-15T13:18:03.945Z,19.51
2023-05-15T13:20:36.083Z,19.42
2023-05-15T13:23:04.073Z,19.56
2023-05-15T13:25:32.355Z,19.37
2023-05-15T13:28:02.158Z,19.31
2023-05-15T13:30:30.454Z,19.39
2023-05-15T13:32:58.026Z,19.34
2023-05-15T13:35:25.566Z,19.17
2023-05-15T13:37:53.243Z,19.23
2023-05-15T13:40:21.311Z,19.73
2023-05-15T13:42:49.122Z,19.87
2023-05-15T13:45:16.642Z,20.07
2023-05-15T13:47:44.674Z,19.85
2023-05-15T13:50:17.360Z,19.65
2023-05-15T13:52:45.452Z,19.58
2023-05-15T13:55:13.180Z,19.40
2023-05-15T13:57:42.235Z,19.43
2023-05-15T14:00:13.722Z,19.43
2023-05-15T14:02:43.589Z,19.53
2023-05-15T14:05:13.071Z,19.51
2023-05-15T14:07:41.562Z,19.45
2023-05-15T14:10:10.168Z,19.38
2023-05-15T14:12:38.448Z,19.28
2023-05-15T14:15:06.573Z,19.19
2023-05-15T14:17:34.676Z,19.31
2023-05-15T14:20:02.541Z,19.25
2023-05-15T14:22:30.693Z,19.25
2023-05-15T14:25:02.078Z,19.31
2023-05-15T14:27:30.164Z,19.21
2023-05-15T14:29:57.745Z,19.27
2023-05-15T14:32:25.180Z,19.28
2023-05-15T14:34:52.623Z,19.29
2023-05-15T14:37:20.080Z,19.35
2023-05-15T14:39:47.418Z,19.41
2023-05-15T14:42:15.032Z,19.45
2023-05-15T14:44:42.375Z,19.81
2023-05-15T14:47:16.920Z,19.58
2023-05-15T14:49:44.384Z,19.48
2023-05-15T14:52:14.895Z,19.56
2023-05-15T14:54:43.747Z,19.60
2023-05-15T14:57:15.033Z,19.57
2023-05-15T14:59:42.428Z,19.71
2023-05-15T15:02:12.800Z,19.80
2023-05-15T15:04:40.263Z,19.78
2023-05-15T15:07:11.289Z,20.01
2023-05-15T15:09:39.425Z,19.89
2023-05-15T15:12:07.178Z,19.73
2023-05-15T15:14:34.630Z,19.83
2023-05-15T15:17:02.387Z,19.84
2023-05-15T15:19:30.282Z,19.97
2023-05-15T15:21:57.915Z,19.89
2023-05-15T15:24:25.523Z,19.80
2023-05-15T15:26:52.951Z,19.92
2023-05-15T15:29:20.547Z,20.07
2023-05-15T15:31:47.966Z,20.06
2023-05-15T15:34:15.839Z,20.04
2023-05-15T15:36:46.501Z,20.02
2023-05-15T15:39:13.888Z,20.02
2023-05-15T15:41:41.311Z,20.10
2023-05-15T15:44:08.762Z,20.10
2023-05-15T15:46:36.249Z,19.79
2023-05-15T15:49:06.918Z,19.73
2023-05-15T15:51:34.448Z,19.72
2023-05-15T15:54:01.883Z,19.97
2023-05-15T15:56:29.226Z,20.02
2023-05-15T15:58:56.593Z,19.96
2023-05-15T16:01:24.131Z,19.92
2023-05-15T16:03:51.727Z,19.72
2023-05-15T16:06:19.233Z,19.66
2023-05-15T16:08:46.925Z,19.51
2023-05-15T16:11:15.736Z,19.55
2023-05-15T16:13:43.586Z,19.47
2023-05-15T16:16:11.348Z,19.41
2023-05-15T16:18:39.105Z,19.39
2023-05-15T16:21:06.596Z,19.39
2023-05-15T16:23:35.411Z,19.34
2023-05-15T16:26:05.894Z,19.38
2023-05-15T16:28:33.286Z,19.34
2023-05-15T16:31:02.030Z,19.52
2023-05-15T16:33:31.028Z,19.33
2023-05-15T16:35:58.544Z,19.20
2023-05-15T16:38:26.511Z,19.10
2023-05-15T16:40:53.948Z,19.08
2023-05-15T16:43:21.975Z,19.06
2023-05-15T16:45:49.549Z,19.04
2023-05-15T16:48:17.053Z,18.96
2023-05-15T16:50:44.513Z,19.08
2023-05-15T16:53:12.309Z,19.21
2023-05-15T16:55:39.925Z,19.26
2023-05-15T16:58:07.282Z,19.04
2023-05-15T17:00:34.659Z,18.92
2023-05-15T17:03:02.374Z,18.95
2023-05-15T17:05:30.006Z,18.92
2023-05-15T17:07:57.864Z,18.86
2023-05-15T17:10:25.703Z,18.76
2023-05-15T17:12:53.500Z,18.82
2023-05-15T17:15:20.915Z,18.81
2023-05-15T17:17:48.338Z,18.78
2023-05-15T17:20:15.826Z,18.71
2023-05-15T17:22:43.260Z,18.75
2023-05-15T17:25:11.282Z,18.78
2023-05-15T17:27:41.338Z,18.65
2023-05-15T17:30:12.501Z,18.65
2023-05-15T17:32:40.558Z,18.65
2023-05-15T17:35:08.378Z,18.67
2023-05-15T17:37:35.888Z,18.72
2023-05-15T17:40:03.649Z,18.70
2023-05-15T17:42:31.113Z,18.59
2023-05-15T17:44:58.720Z,18.64
2023-05-15T17:47:26.241Z,18.64
2023-05-15T17:49:53.735Z,18.58
2023-05-15T17:52:21.157Z,18.46
2023-05-15T17:54:48.598Z,18.55
2023-05-15T17:57:16.272Z,18.50
2023-05-15T17:59:43.671Z,18.47
2023-05-15T18:02:11.070Z,18.43
2023-05-15T18:04:38.990Z,18.42
2023-05-15T18:07:06.437Z,18.39
2023-05-15T18:09:33.884Z,18.32
2023-05-15T18:12:01.205Z,18.24
2023-05-15T18:14:28.580Z,18.24
2023-05-15T18:16:56.387Z,18.28
2023-05-15T18:19:23.926Z,18.26
2023-05-15T18:21:52.711Z,18.09
2023-05-15T18:24:20.187Z,18.16
2023-05-15T18:26:47.612Z,18.09
2023-05-15T18:29:15.033Z,18.09
2023-05-15T18:31:42.489Z,18.02
2023-05-15T18:34:09.972Z,18.07
2023-05-15T18:36:37.386Z,17.91
2023-05-15T18:39:04.723Z,17.88
2023-05-15T18:41:32.640Z,17.85
2023-05-15T18:44:00.052Z,17.80
2023-05-15T18:46:28.416Z,17.63
2023-05-15T18:48:55.975Z,17.68
2023-05-15T18:51:23.789Z,17.64
2023-05-15T18:53:51.193Z,17.55
2023-05-15T18:56:18.504Z,17.61
2023-05-15T18:58:47.370Z,17.56
2023-05-15T19:01:14.839Z,17.47
2023-05-15T19:03:42.428Z,17.37
2023-05-15T19:06:10.038Z,17.42
2023-05-15T19:08:37.588Z,17.39
2023-05-15T19:11:05.644Z,17.33
2023-05-15T19:13:33.285Z,17.32
2023-05-15T19:16:00.629Z,17.36
2023-05-15T19:18:28.031Z,17.31
2023-05-15T19:20:56.760Z,17.31
2023-05-15T19:23:24.698Z,17.28
2023-05-15T19:25:52.681Z,17.25
2023-05-15T19:28:19.971Z,17.22
2023-05-15T19:30:47.395Z,17.19
2023-05-15T19:33:17.888Z,17.25
2023-05-15T19:35:45.423Z,17.23
2023-05-15T19:38:13.344Z,17.19
2023-05-15T19:40:43.183Z,17.19
2023-05-15T19:43:11.467Z,17.17
2023-05-15T19:45:42.478Z,17.13
2023-05-15T19:48:10.156Z,17.04
2023-05-15T19:50:39.425Z,17.06
2023-05-15T19:53:07.556Z,17.05
2023-05-15T19:55:35.060Z,17.09
2023-05-15T19:58:02.416Z,17.03
2023-05-15T20:00:30.039Z,16.86
2023-05-15T20:02:57.838Z,16.82
2023-05-15T20:05:25.351Z,16.71
2023-05-15T20:07:53.062Z,16.77
2023-05-15T20:10:20.990Z,16.76
2023-05-15T20:12:48.389Z,16.58
2023-05-15T20:15:16.416Z,16.59
2023-05-15T20:17:44.144Z,16.62
2023-05-15T20:20:12.249Z,16.56
2023-05-15T20:22:44.950Z,16.56
2023-05-15T20:25:12.463Z,16.59
2023-05-15T20:27:39.859Z,16.45
2023-05-15T20:30:07.778Z,16.47
2023-05-15T20:32:36.240Z,16.44
2023-05-15T20:35:04.014Z,16.37
2023-05-15T20:37:31.903Z,16.26
2023-05-15T20:40:00.160Z,16.27
2023-05-15T20:42:28.307Z,16.14
2023-05-15T20:44:55.802Z,16.11
2023-05-15T20:47:23.301Z,16.13
2023-05-15T20:49:50.821Z,16.06
2023-05-15T20:52:18.194Z,16.02
2023-05-15T20:54:45.812Z,15.99
2023-05-15T20:57:13.334Z,15.96
2023-05-15T20:59:41.532Z,15.86
2023-05-15T21:02:08.881Z,15.89
2023-05-15T21:04:36.378Z,15.92
2023-05-15T21:07:03.992Z,15.91
2023-05-15T21:09:31.779Z,16.00
2023-05-15T21:11:59.957Z,15.93
2023-05-15T21:14:27.528Z,15.91
2023-05-15T21:16:55.250Z,15.88
2023-05-15T21:19:22.843Z,15.94
2023-05-15T21:21:50.390Z,15.85
2023-05-15T21:24:18.018Z,15.92
2023-05-15T21:26:45.829Z,15.96
2023-05-15T21:29:13.235Z,15.90
2023-05-15T21:31:41.612Z,15.75
2023-05-15T21:34:09.337Z,15.85
2023-05-15T21:36:36.741Z,15.80
2023-05-15T21:39:04.717Z,15.85
2023-05-15T21:41:32.587Z,15.70
2023-05-15T21:43:59.921Z,15.83
2023-05-15T21:46:27.295Z,15.77
2023-05-15T21:48:54.674Z,15.79
2023-05-15T21:51:22.074Z,15.69
2023-05-15T21:53:49.494Z,15.74
2023-05-15T21:56:16.878Z,15.69
2023-05-15T21:58:44.306Z,15.60
2023-05-15T22:01:11.825Z,15.75
2023-05-15T22:03:39.442Z,15.62
2023-05-15T22:06:07.113Z,15.66
2023-05-15T22:08:34.556Z,15.66
2023-05-15T22:11:03.664Z,15.69
2023-05-15T22:13:31.202Z,15.65
2023-05-15T22:15:58.727Z,15.70
2023-05-15T22:18:28.254Z,15.63
2023-05-15T22:20:56.371Z,15.68
2023-05-15T22:23:23.834Z,15.72
2023-05-15T22:25:51.578Z,15.71
2023-05-15T22:28:19.142Z,15.64
2023-05-15T22:30:46.908Z,15.77
2023-05-15T22:33:15.094Z,15.69
2023-05-15T22:35:42.919Z,15.59
2023-05-15T22:38:10.394Z,15.51
2023-05-15T22:40:37.806Z,15.48
2023-05-15T22:43:05.267Z,15.57
2023-05-15T22:45:32.735Z,15.56
2023-05-15T22:48:01.689Z,15.46
2023-05-15T22:50:29.315Z,15.45
2023-05-15T22:52:57.067Z,15.45
2023-05-15T22:55:24.499Z,15.29
2023-05-15T22:57:51.936Z,15.46
2023-05-15T23:00:19.483Z,15.40
2023-05-15T23:02:46.858Z,15.30
2023-05-15T23:05:14.303Z,15.43
2023-05-15T23:07:41.732Z,15.35
2023-05-15T23:10:09.594Z,15.31
2023-05-15T23:12:37.275Z,15.29
2023-05-15T23:15:05.087Z,15.22
2023-05-15T23:17:32.623Z,15.21
2023-05-15T23:20:00.292Z,15.27
2023-05-15T23:22:27.769Z,15.35
2023-05-15T23:24:55.257Z,15.35
2023-05-15T23:27:22.816Z,15.14
2023-05-15T23:29:50.239Z,15.00
2023-05-15T23:32:17.624Z,15.11
2023-05-15T23:34:45.079Z,15.16
2023-05-15T23:37:12.560Z,15.11
2023-05-15T23:39:40.011Z,15.21
2023-05-15T23:42:10.026Z,15.14
2023-05-15T23:44:37.444Z,15.19
2023-05-15T23:47:05.396Z,15.26
2023-05-15T23:49:33.628Z,15.27
2023-05-15T23:52:01.196Z,15.26
2023-05-15T23:54:28.620Z,15.24
2023-05-15T23:56:56.025Z,15.32
2023-05-15T23:59:23.538Z,15.30
